Time;durP1;ratioP1;P1;durP2;ratioP2;P2;SDS_P1;SDS_P2;PMS_P1;PMS_P2;Temp;Humidity;BMP_temperature;BMP_pressure;BME280_temperature;BME280_humidity;BME280_pressure;Samples;Min_cycle;Max_cycle;Signal;HPM_P1;HPM_P2
2022/08/23 00:00:10;;;;;;;4.32;2.83;;;;;;;18.22;54.95;98976.19;5162546;28;20137;-66
2022/08/23 00:03:02;;;;;;;3.38;2.70;;;;;;;18.57;53.68;98970.88;5161714;28;20136;-67
2022/08/23 00:05:54;;;;;;;7.57;2.60;;;;;;;18.62;53.64;98978.38;5162099;28;20054;-67
2022/08/23 00:08:45;;;;;;;4.05;2.45;;;;;;;18.46;53.50;98980.31;5161264;28;20192;-67
2022/08/23 00:11:50;;;;;;;6.07;2.83;;;;;;;18.19;54.59;98978.44;5160442;28;20097;-67
2022/08/23 00:14:47;;;;;;;7.72;3.28;;;;;;;18.15;54.46;98972.63;5162382;28;20153;-67
2022/08/23 00:17:38;;;;;;;3.97;2.75;;;;;;;18.02;54.74;98956.41;5162030;28;20630;-67
2022/08/23 00:20:28;;;;;;;5.38;2.80;;;;;;;18.14;54.94;98975.50;5161661;28;20270;-67
2022/08/23 00:23:18;;;;;;;8.73;3.08;;;;;;;18.19;54.76;98973.91;5161287;28;20321;-67
2022/08/23 00:26:08;;;;;;;5.32;2.65;;;;;;;18.41;53.84;98977.41;5161822;28;20060;-66
2022/08/23 00:28:58;;;;;;;4.70;2.83;;;;;;;18.27;54.72;98972.91;5162048;28;20437;-66
2022/08/23 00:31:49;;;;;;;4.95;2.70;;;;;;;18.18;54.37;98971.41;5146423;28;20440;-66
2022/08/23 00:34:39;;;;;;;6.15;2.75;;;;;;;18.04;54.91;98973.13;5161962;28;20057;-66
2022/08/23 00:37:31;;;;;;;4.78;2.78;;;;;;;17.92;54.95;98961.28;5161514;28;20046;-66
2022/08/23 00:40:22;;;;;;;4.70;2.78;;;;;;;17.92;54.32;98975.50;5162042;28;20077;-67
2022/08/23 00:50:12;;;;;;;4.45;2.70;;;;;;;17.82;55.42;98961.59;5162090;28;20061;-66
2022/08/23 00:53:19;;;;;;;4.38;2.45;;;;;;;17.67;54.60;98953.56;5159822;28;20106;-66
2022/08/23 00:56:12;;;;;;;4.60;2.50;;;;;;;17.75;55.53;98968.72;5161573;28;20429;-66
2022/08/23 00:59:02;;;;;;;4.18;3.22;;;;;;;17.89;56.09;98969.69;5162274;28;20081;-66
2022/08/23 01:01:53;;;;;;;4.70;3.50;;;;;;;17.80;55.62;98969.81;5164892;28;20057;-66
2022/08/23 01:04:51;;;;;;;5.18;3.85;;;;;;;17.78;56.57;98971.88;5166198;28;20057;-66
2022/08/23 01:07:54;;;;;;;7.85;3.85;;;;;;;17.79;56.21;98970.84;5164379;28;20073;-66
2022/08/23 01:10:51;;;;;;;6.40;4.28;;;;;;;17.67;56.82;98971.50;5164422;28;20516;-66
2022/08/23 01:13:53;;;;;;;5.32;3.22;;;;;;;17.72;56.20;98967.25;5165293;28;20523;-67
2022/08/23 01:16:53;;;;;;;5.25;3.40;;;;;;;17.60;56.56;98971.44;5165212;28;20061;-66
2022/08/23 01:19:49;;;;;;;4.13;3.13;;;;;;;17.61;56.18;98976.63;5164831;28;20061;-66
2022/08/23 01:22:58;;;;;;;5.03;2.80;;;;;;;17.67;56.07;98971.50;5164423;28;20066;-66
2022/08/23 01:25:49;;;;;;;4.13;3.03;;;;;;;17.48;56.77;98971.09;5165307;28;20188;-66
2022/08/23 01:28:40;;;;;;;5.03;3.05;;;;;;;17.48;56.00;98973.78;5163985;28;20093;-66
2022/08/23 01:31:35;;;;;;;4.88;2.80;;;;;;;17.40;56.25;98973.06;5149839;28;20418;-66
2022/08/23 01:34:27;;;;;;;3.58;3.00;;;;;;;17.33;55.92;98973.81;5165281;28;20149;-66
2022/08/23 01:37:20;;;;;;;4.32;2.75;;;;;;;17.33;56.01;98976.47;5165138;28;20345;-66
2022/08/23 01:40:11;;;;;;;4.55;2.85;;;;;;;17.28;56.27;98976.19;5164067;28;20057;-66
2022/08/23 01:43:04;;;;;;;5.80;2.95;;;;;;;17.24;56.49;98980.28;5163178;28;20601;-66
2022/08/23 01:45:54;;;;;;;3.13;2.72;;;;;;;17.20;56.70;98980.84;5165081;28;20058;-66
2022/08/23 01:48:48;;;;;;;3.78;3.05;;;;;;;17.05;56.45;98980.84;5163993;28;20548;-66
2022/08/23 01:51:38;;;;;;;4.65;2.75;;;;;;;17.18;57.29;98986.38;5163398;28;20061;-66
2022/08/23 01:54:30;;;;;;;4.28;2.90;;;;;;;17.25;56.81;98992.69;5164203;28;20073;-66
2022/08/23 01:57:20;;;;;;;8.18;3.15;;;;;;;17.20;57.26;98989.72;5163462;28;20078;-66
2022/08/23 02:00:12;;;;;;;4.65;3.22;;;;;;;17.01;57.55;98988.41;5163848;28;20125;-66
2022/08/23 02:03:05;;;;;;;5.68;3.05;;;;;;;17.04;56.60;98984.56;5164020;28;20057;-66
2022/08/23 02:05:56;;;;;;;6.70;3.60;;;;;;;17.27;56.93;98987.94;5164494;28;20052;-66
2022/08/23 02:09:02;;;;;;;5.72;3.15;;;;;;;17.35;56.27;98985.19;5163625;28;20061;-66
2022/08/23 02:11:56;;;;;;;5.38;3.50;;;;;;;17.21;57.54;98986.00;5147134;28;20061;-66
2022/08/23 02:14:47;;;;;;;4.65;3.33;;;;;;;17.31;56.59;98991.06;5163553;28;20432;-68
2022/08/23 02:17:43;;;;;;;8.15;3.92;;;;;;;16.97;57.52;98981.78;5149278;28;20113;-66
2022/08/23 02:20:33;;;;;;;11.63;3.33;;;;;;;16.90;57.52;98979.00;5164475;28;20058;-66
2022/08/23 02:23:26;;;;;;;5.95;3.42;;;;;;;16.80;57.58;98981.13;5161686;28;20106;-66
2022/08/23 02:26:17;;;;;;;4.90;3.28;;;;;;;16.90;57.55;98983.53;5164097;28;20065;-66
2022/08/23 02:29:08;;;;;;;4.25;3.05;;;;;;;16.88;57.63;98980.22;5163214;28;20050;-66
2022/08/23 02:32:00;;;;;;;6.90;3.60;;;;;;;16.88;58.04;98986.38;5162477;28;20057;-66
2022/08/23 02:34:51;;;;;;;5.50;3.40;;;;;;;16.91;57.80;98988.69;5163012;28;20197;-66
2022/08/23 02:38:03;;;;;;;4.32;3.10;;;;;;;16.87;57.23;98990.09;5162769;28;20045;-67
2022/08/23 02:40:54;;;;;;;7.10;3.75;;;;;;;16.91;57.82;98999.41;5163482;28;20050;-67
2022/08/23 02:43:52;;;;;;;6.32;3.60;;;;;;;16.88;57.76;98989.06;5162624;28;20061;-66
2022/08/23 02:46:44;;;;;;;4.75;3.60;;;;;;;16.81;57.86;98993.50;5162642;28;20576;-66
2022/08/23 02:49:35;;;;;;;6.53;3.60;;;;;;;16.71;58.10;98984.06;5162788;28;20420;-67
2022/08/23 02:52:26;;;;;;;7.93;4.18;;;;;;;16.65;58.59;99007.88;5148225;28;20066;-66
2022/08/23 02:55:17;;;;;;;5.70;3.88;;;;;;;16.62;58.24;99002.03;5149080;28;20057;-67
2022/08/23 02:58:07;;;;;;;5.75;3.65;;;;;;;16.58;58.58;99006.09;5163376;28;20521;-66
2022/08/23 03:00:58;;;;;;;5.35;3.65;;;;;;;16.54;59.53;99005.63;5163415;28;20073;-68
2022/08/23 03:03:49;;;;;;;5.22;3.63;;;;;;;16.44;58.40;98991.66;5208411;22;20041;-67
2022/08/23 03:06:39;;;;;;;5.20;3.85;;;;;;;16.44;58.26;98994.34;5209689;28;20048;-67
2022/08/23 03:09:30;;;;;;;6.50;3.75;;;;;;;16.42;58.84;98999.91;5224361;28;20118;-67
2022/08/23 03:12:20;;;;;;;7.07;3.40;;;;;;;16.70;59.14;99004.63;5221523;28;20052;-67
2022/08/23 03:15:15;;;;;;;5.45;3.70;;;;;;;16.43;59.30;99006.91;5189174;28;20113;-67
2022/08/23 03:18:07;;;;;;;6.13;3.75;;;;;;;16.51;59.79;98997.97;5187480;28;20053;-68
2022/08/23 03:20:57;;;;;;;6.03;3.60;;;;;;;16.70;58.93;99004.63;5188207;28;20053;-68
2022/08/23 03:23:48;;;;;;;6.30;3.78;;;;;;;16.55;59.13;99001.94;5185656;28;20061;-68
2022/08/23 03:26:44;;;;;;;5.38;3.40;;;;;;;16.48;58.92;99000.16;5188552;28;20104;-68
2022/08/23 03:29:37;;;;;;;6.57;3.40;;;;;;;16.44;59.51;99005.88;5188705;28;20419;-68
2022/08/23 03:32:27;;;;;;;5.70;3.95;;;;;;;16.40;59.66;99009.94;5202524;28;20124;-68
2022/08/23 03:35:17;;;;;;;8.05;3.88;;;;;;;16.45;59.49;99009.38;5188753;28;20053;-68
2022/08/23 03:38:08;;;;;;;6.40;4.13;;;;;;;16.35;59.00;99017.66;5202625;28;20049;-68
2022/08/23 03:40:59;;;;;;;4.30;3.40;;;;;;;16.27;58.68;99014.25;5188213;28;20060;-68
2022/08/23 03:43:50;;;;;;;8.85;3.88;;;;;;;16.18;61.38;99016.13;5188066;28;20525;-68
2022/08/23 03:46:41;;;;;;;6.35;3.97;;;;;;;16.26;61.29;99013.41;5188399;28;20482;-68
2022/08/23 03:49:31;;;;;;;5.28;3.78;;;;;;;16.30;61.03;99025.41;5188121;28;20523;-68
2022/08/23 03:52:22;;;;;;;12.18;4.38;;;;;;;16.24;61.11;99025.31;5186998;28;20525;-68
2022/08/23 03:55:13;;;;;;;8.20;4.05;;;;;;;16.24;60.71;99033.31;5188216;28;20431;-68
2022/08/23 03:58:06;;;;;;;6.43;4.20;;;;;;;16.28;61.75;99032.78;5187840;28;20468;-68
2022/08/23 04:00:56;;;;;;;5.68;3.85;;;;;;;16.31;60.22;99042.28;5201333;28;20049;-68
2022/08/23 04:03:47;;;;;;;7.07;4.38;;;;;;;16.28;61.17;99042.66;5187584;28;20087;-68
2022/08/23 04:06:38;;;;;;;4.55;3.88;;;;;;;16.14;61.56;99036.25;5202057;28;20082;-68
2022/08/23 04:09:29;;;;;;;6.45;4.22;;;;;;;16.11;61.41;99029.41;5188042;28;20116;-68
2022/08/23 04:12:22;;;;;;;7.65;4.15;;;;;;;16.22;61.52;99036.16;5186138;28;20513;-67
2022/08/23 04:15:12;;;;;;;6.13;3.80;;;;;;;16.09;62.12;99031.44;5187958;28;20076;-66
2022/08/23 04:18:04;;;;;;;7.47;3.88;;;;;;;16.13;61.37;99040.75;5186345;28;20056;-67
2022/08/23 04:20:57;;;;;;;7.50;4.40;;;;;;;16.13;61.84;99039.94;5187095;28;20144;-68
2022/08/23 04:23:47;;;;;;;6.45;4.18;;;;;;;15.95;62.59;99030.34;5202304;28;20112;-68
2022/08/23 04:26:39;;;;;;;6.18;3.95;;;;;;;16.02;61.92;99037.66;5187485;28;20056;-67
2022/08/23 04:29:30;;;;;;;7.38;4.55;;;;;;;16.18;62.41;99037.53;5202552;28;20048;-67
2022/08/23 04:32:24;;;;;;;;;;;;;;;16.23;62.03;99056.56;5186865;28;20176;-67
2022/08/23 04:35:18;;;;;;;6.97;4.05;;;;;;;16.16;61.29;99050.28;5187389;28;19921;-67
2022/08/23 04:38:09;;;;;;;5.65;4.07;;;;;;;16.23;61.05;99059.25;5187752;28;20518;-66
2022/08/23 04:44:25;;;;;;;5.03;4.32;;;;;;;16.19;59.92;99065.94;5187586;28;20504;-66
2022/08/23 04:47:18;;;;;;;7.78;4.10;;;;;;;16.28;60.28;99074.75;5187122;28;20060;-66
2022/08/23 04:50:09;;;;;;;5.68;4.18;;;;;;;16.17;60.79;99067.97;5201273;28;20049;-66
2022/08/23 04:53:18;;;;;;;8.82;4.40;;;;;;;16.05;61.04;99064.03;5201677;28;20303;-68
2022/08/23 04:56:30;;;;;;;6.20;4.03;;;;;;;16.04;60.67;99067.75;5201088;28;20076;-68
2022/08/23 04:59:21;;;;;;;7.72;4.30;;;;;;;16.08;60.52;99085.09;5187325;28;20053;-68
2022/08/23 05:02:12;;;;;;;11.98;4.80;;;;;;;16.01;60.67;99078.78;5186188;28;20084;-68
2022/08/23 05:05:02;;;;;;;4.60;3.75;;;;;;;16.14;60.79;99090.56;5187283;28;20072;-68
2022/08/23 05:07:56;;;;;;;7.18;4.47;;;;;;;16.15;60.69;99072.66;5186912;28;20128;-68
2022/08/23 05:10:46;;;;;;;6.07;3.92;;;;;;;16.27;60.82;99094.50;5199608;28;20171;-68
2022/08/23 05:13:37;;;;;;;5.55;4.53;;;;;;;16.36;60.77;99083.56;5189186;28;20127;-68
2022/08/23 05:16:30;;;;;;;4.80;3.90;;;;;;;16.20;60.48;99068.47;5203821;28;20114;-68
2022/08/23 05:19:26;;;;;;;8.55;4.43;;;;;;;16.59;59.73;99094.25;5206599;28;20060;-68
2022/08/23 05:22:16;;;;;;;8.10;4.10;;;;;;;16.64;60.19;99091.03;5221318;28;20068;-68
2022/08/23 05:25:48;;;;;;;7.22;3.80;;;;;;;16.60;60.35;99092.41;5222569;28;20052;-68
2022/08/23 05:28:43;;;;;;;15.05;4.45;;;;;;;16.64;60.12;99101.75;5230428;28;20390;-68
2022/08/23 05:31:36;;;;;;;6.22;4.60;;;;;;;16.64;60.85;99101.75;5220086;28;20056;-68
2022/08/23 05:34:26;;;;;;;11.52;5.13;;;;;;;16.71;61.36;99105.34;5202222;28;20108;-68
2022/08/23 05:37:18;;;;;;;8.52;4.63;;;;;;;16.77;60.99;99107.34;5199369;28;20060;-68
2022/08/23 05:40:09;;;;;;;10.00;4.68;;;;;;;16.83;60.61;99095.91;5187170;28;20448;-68
2022/08/23 05:43:09;;;;;;;9.32;4.60;;;;;;;16.85;59.53;99104.63;5200122;28;20050;-68
2022/08/23 05:46:07;;;;;;;7.75;4.40;;;;;;;16.89;59.71;99095.19;5187610;28;20407;-67
2022/08/23 05:49:05;;;;;;;6.68;4.45;;;;;;;16.99;59.03;99107.50;5204670;28;20076;-68
2022/08/23 05:51:55;;;;;;;8.40;4.57;;;;;;;17.04;59.15;99097.88;5189432;28;20436;-66
2022/08/23 05:54:50;;;;;;;8.13;4.43;;;;;;;17.12;59.34;99107.72;5204733;28;20131;-68
2022/08/23 05:58:06;;;;;;;5.47;4.15;;;;;;;17.22;58.63;99116.31;5190133;28;20814;-67
2022/08/23 06:00:56;;;;;;;9.27;4.22;;;;;;;17.35;59.55;99127.22;5203867;28;20065;-68
2022/08/23 06:03:48;;;;;;;6.38;3.90;;;;;;;17.51;58.61;99125.34;5204079;28;20113;-68
2022/08/23 06:06:40;;;;;;;7.03;4.88;;;;;;;17.52;58.51;99133.22;5190333;28;20515;-67
2022/08/23 06:09:31;;;;;;;7.07;4.30;;;;;;;17.69;58.12;99131.19;5190313;28;20131;-67
2022/08/23 06:12:21;;;;;;;9.05;4.18;;;;;;;17.71;57.84;99123.75;5187943;28;20120;-67
2022/08/23 06:15:12;;;;;;;6.13;4.00;;;;;;;17.75;58.01;99110.84;5190645;28;20509;-68
2022/08/23 06:18:02;;;;;;;6.00;3.70;;;;;;;17.88;58.42;99121.78;5188831;28;20053;-67
2022/08/23 06:21:04;;;;;;;6.85;3.65;;;;;;;18.20;56.90;99130.38;5189630;28;20512;-67
2022/08/23 06:24:04;;;;;;;6.10;4.28;;;;;;;18.38;56.16;99133.47;5190114;28;20123;-67
2022/08/23 06:26:54;;;;;;;5.75;3.78;;;;;;;18.42;55.72;99137.44;5176050;28;20097;-67
2022/08/23 06:29:44;;;;;;;6.80;3.72;;;;;;;18.58;55.74;99133.69;5205042;28;20218;-67
2022/08/23 06:33:04;;;;;;;7.88;3.85;;;;;;;18.96;54.75;99138.78;5157694;28;20515;-67
2022/08/23 06:36:05;;;;;;;5.22;3.67;;;;;;;19.14;54.17;99128.41;5204466;28;20459;-67
2022/08/23 06:39:16;;;;;;;5.85;3.50;;;;;;;19.30;54.04;99131.78;5190014;28;20526;-67
2022/08/23 06:42:42;;;;;;;10.43;3.67;;;;;;;19.51;53.85;99145.19;5160135;28;20058;-67
2022/08/23 06:45:33;;;;;;;9.30;4.15;;;;;;;19.63;53.80;99140.06;5217706;28;20052;-68
2022/08/23 06:48:25;;;;;;;9.45;3.70;;;;;;;19.75;53.24;99132.31;5189452;28;20541;-67
2022/08/23 06:51:24;;;;;;;5.72;3.42;;;;;;;19.93;53.61;99137.97;5188473;28;20602;-67
2022/08/23 06:54:28;;;;;;;7.35;3.38;;;;;;;20.23;51.53;99138.50;5189598;28;20076;-67
2022/08/23 06:57:37;;;;;;;9.50;3.38;;;;;;;20.45;51.23;99136.47;5203792;28;20058;-67
2022/08/23 07:01:38;;;;;;;7.43;3.55;;;;;;;20.52;50.85;99134.66;5188677;28;20590;-67
2022/08/23 07:04:42;;;;;;;8.77;3.53;;;;;;;20.49;51.28;99134.19;5217096;28;20122;-68
2022/08/23 07:07:53;;;;;;;5.90;3.33;;;;;;;20.89;50.43;99137.78;5195416;28;20061;-67
2022/08/23 07:10:43;;;;;;;6.28;2.95;;;;;;;21.03;49.69;99144.88;5201873;28;20060;-67
2022/08/23 07:13:33;;;;;;;6.80;2.80;;;;;;;21.47;48.97;99148.78;5188514;28;20065;-67
2022/08/23 07:16:24;;;;;;;6.60;2.70;;;;;;;21.60;48.93;99139.84;5203887;28;20135;-67
2022/08/23 07:19:16;;;;;;;6.85;3.13;;;;;;;21.81;47.67;99141.44;5187150;28;20080;-67
2022/08/23 07:22:07;;;;;;;4.75;2.58;;;;;;;22.04;48.20;99139.03;5201395;28;20053;-67
2022/08/23 07:24:57;;;;;;;5.60;3.03;;;;;;;22.23;47.09;99145.44;5203889;28;20045;-67
2022/08/23 07:27:48;;;;;;;6.75;3.10;;;;;;;22.72;46.27;99157.41;5188332;28;20086;-67
2022/08/23 07:30:42;;;;;;;5.25;3.25;;;;;;;22.97;45.61;99143.94;5188303;28;20136;-67
2022/08/23 07:33:36;;;;;;;4.90;2.70;;;;;;;22.78;45.01;99125.97;5202429;28;20054;-67
2022/08/23 07:36:35;;;;;;;7.97;2.80;;;;;;;23.75;43.50;99145.31;5202441;28;20087;-68
2022/08/23 07:39:26;;;;;;;5.75;2.67;;;;;;;24.12;43.17;99142.56;5202719;28;20060;-67
2022/08/23 07:42:18;;;;;;;4.13;2.42;;;;;;;25.15;41.65;99143.38;5187418;28;20511;-67
2022/08/23 07:45:16;;;;;;;5.38;2.83;;;;;;;26.74;37.69;99142.09;5202493;28;20069;-67
2022/08/23 07:48:10;;;;;;;6.30;2.33;;;;;;;26.84;37.89;99156.69;5188367;28;20049;-67
2022/08/23 07:51:20;;;;;;;5.63;2.17;;;;;;;27.38;36.93;99151.63;5187393;28;20068;-67
2022/08/23 07:54:11;;;;;;;7.63;2.03;;;;;;;28.20;36.58;99158.16;5188167;28;20061;-68
2022/08/23 07:57:20;;;;;;;7.68;2.30;;;;;;;28.75;33.62;99162.59;5187881;28;20068;-67
2022/08/23 08:00:30;;;;;;;11.57;2.50;;;;;;;29.05;33.95;99160.41;5202909;28;20558;-68
2022/08/23 08:03:32;;;;;;;5.30;2.50;;;;;;;29.55;33.33;99165.41;5187654;28;20571;-68
2022/08/23 08:06:46;;;;;;;3.90;2.25;;;;;;;30.11;31.29;99167.66;5187822;28;20104;-67
2022/08/23 08:09:55;;;;;;;5.95;2.72;;;;;;;30.81;30.79;99166.22;5187105;28;20056;-68
2022/08/23 08:12:46;;;;;;;4.82;2.30;;;;;;;30.72;29.98;99161.53;5186386;28;20083;-67
2022/08/23 08:15:41;;;;;;;6.10;2.17;;;;;;;31.24;30.42;99164.03;5201889;28;20056;-67
2022/08/23 08:18:36;;;;;;;5.03;2.20;;;;;;;31.39;29.83;99159.66;5185883;28;20060;-68
2022/08/23 08:21:46;;;;;;;6.18;2.58;;;;;;;31.50;29.97;99156.63;5201627;28;20081;-68
2022/08/23 08:24:50;;;;;;;4.18;1.90;;;;;;;31.61;29.31;99165.66;5187899;28;20160;-67
2022/08/23 08:27:41;;;;;;;4.53;2.20;;;;;;;32.09;29.27;99165.22;5187530;28;20064;-68
2022/08/23 08:30:32;;;;;;;4.55;2.13;;;;;;;31.99;28.58;99166.13;5201228;28;20052;-68
2022/08/23 08:33:26;;;;;;;2.30;1.88;;;;;;;32.69;29.17;99177.84;5187011;28;20100;-68
2022/08/23 08:36:28;;;;;;;5.78;2.20;;;;;;;33.14;27.88;99172.31;5187404;28;20531;-67
2022/08/23 08:39:25;;;;;;;4.28;2.08;;;;;;;32.29;27.23;99168.72;5200502;28;20056;-67
2022/08/23 08:42:40;;;;;;;3.58;1.95;;;;;;;32.89;27.19;99165.91;5186406;28;20128;-68
2022/08/23 08:45:44;;;;;;;3.93;2.30;;;;;;;33.32;27.62;99163.34;5188026;28;20060;-68
2022/08/23 08:48:55;;;;;;;3.30;1.58;;;;;;;33.95;26.14;99170.69;5187613;28;20857;-68
2022/08/23 08:52:00;;;;;;;5.13;2.17;;;;;;;33.96;26.49;99172.31;5186307;28;20550;-68
2022/08/23 08:55:09;;;;;;;5.65;2.30;;;;;;;34.07;26.10;99173.03;5187701;28;20124;-66
2022/08/23 08:58:01;;;;;;;4.38;2.20;;;;;;;34.28;24.29;99168.91;5215591;28;20063;-66
2022/08/23 09:00:51;;;;;;;4.25;1.70;;;;;;;33.90;26.53;99171.53;5186963;28;20065;-66
2022/08/23 09:03:47;;;;;;;5.15;1.95;;;;;;;34.20;26.09;99177.00;5187707;28;20195;-67
2022/08/23 09:07:10;;;;;;;6.47;1.95;;;;;;;33.54;26.59;99178.56;5202254;28;20080;-67
2022/08/23 09:10:15;;;;;;;7.20;1.90;;;;;;;34.35;25.19;99174.06;5187403;28;20191;-67
2022/08/23 09:13:34;;;;;;;6.32;2.38;;;;;;;34.60;25.35;99165.47;5200615;28;20439;-67
2022/08/23 09:16:53;;;;;;;3.38;1.88;;;;;;;35.33;24.37;99168.69;5202245;28;20559;-67
2022/08/23 09:19:47;;;;;;;5.85;2.25;;;;;;;33.90;25.47;99137.72;5199757;28;20344;-67
2022/08/23 09:22:44;;;;;;;9.27;2.28;;;;;;;34.83;25.09;99157.38;5188954;28;20099;-67
2022/08/23 09:26:01;;;;;;;3.72;2.25;;;;;;;35.23;24.35;99161.44;5205308;28;20111;-67
2022/08/23 09:29:10;;;;;;;4.07;1.60;;;;;;;35.47;22.31;99154.94;5191534;28;20056;-67
2022/08/23 09:32:05;;;;;;;17.52;2.00;;;;;;;35.36;23.35;99164.53;5189986;28;20064;-67
2022/08/23 09:35:11;;;;;;;5.35;2.00;;;;;;;35.50;23.65;99159.88;5191207;28;20053;-68
2022/08/23 09:38:20;;;;;;;4.90;1.90;;;;;;;35.50;23.33;99166.19;5219015;28;20106;-68
2022/08/23 09:41:19;;;;;;;5.80;1.88;;;;;;;35.84;23.37;99170.53;5218289;28;20050;-66
2022/08/23 09:44:31;;;;;;;3.75;1.67;;;;;;;35.91;22.32;99156.31;5205092;28;20139;-67
2022/08/23 09:47:34;;;;;;;5.18;2.20;;;;;;;35.61;23.10;99157.75;5205880;28;20431;-67
2022/08/23 09:50:44;;;;;;;2.55;1.63;;;;;;;35.03;23.38;99156.25;5190303;28;20042;-66
2022/08/23 09:53:35;;;;;;;3.70;1.70;;;;;;;35.64;22.89;99165.41;5204250;28;20143;-67
2022/08/23 09:56:38;;;;;;;2.75;1.67;;;;;;;36.28;22.04;99169.09;5177567;28;20507;-67
2022/08/23 09:59:46;;;;;;;2.95;1.58;;;;;;;35.99;20.06;99156.44;5205692;28;20056;-67
2022/08/23 10:02:41;;;;;;;5.32;1.58;;;;;;;36.12;20.82;99162.25;5189726;28;20351;-67
2022/08/23 10:05:40;;;;;;;2.10;1.50;;;;;;;35.96;20.95;99157.03;5190184;28;20049;-67
2022/08/23 10:08:50;;;;;;;3.53;1.42;;;;;;;35.70;20.02;99153.16;5190217;28;20083;-67
2022/08/23 10:11:44;;;;;;;6.07;1.40;;;;;;;34.94;21.42;99161.63;5202244;28;20045;-68
2022/08/23 10:14:35;;;;;;;2.95;1.70;;;;;;;35.05;22.39;99152.09;5189956;28;20049;-68
2022/08/23 10:17:36;;;;;;;4.07;1.60;;;;;;;35.39;20.84;99159.22;5189861;28;20057;-67
2022/08/23 10:20:37;;;;;;;4.47;1.70;;;;;;;34.64;22.09;99146.41;5217633;28;20053;-67
2022/08/23 10:23:41;;;;;;;3.22;1.50;;;;;;;33.34;22.74;99146.56;5189338;28;20060;-67
2022/08/23 10:26:38;;;;;;;2.75;1.60;;;;;;;34.68;22.25;99127.34;5205310;28;20725;-67
2022/08/23 10:29:39;;;;;;;6.43;1.77;;;;;;;35.14;21.61;99134.88;5189794;28;20056;-67
2022/08/23 10:32:40;;;;;;;3.08;1.20;;;;;;;34.34;22.17;99131.94;5187809;28;20057;-67
2022/08/23 10:36:02;;;;;;;2.95;1.48;;;;;;;34.62;21.25;99128.53;5205172;28;20065;-67
2022/08/23 10:38:57;;;;;;;3.47;1.38;;;;;;;34.22;21.84;99117.00;5202299;28;20076;-67
2022/08/23 10:42:03;;;;;;;4.75;1.38;;;;;;;34.56;22.62;99127.78;5188627;28;20116;-67
2022/08/23 10:45:21;;;;;;;2.72;1.55;;;;;;;34.41;22.59;99128.00;5189597;28;20055;-66
2022/08/23 10:48:29;;;;;;;5.88;1.85;;;;;;;34.32;21.04;99125.09;5203435;28;20055;-66
2022/08/23 10:51:26;;;;;;;3.08;1.50;;;;;;;34.09;21.21;99127.59;5188979;28;20072;-68
2022/08/23 10:54:44;;;;;;;6.07;1.70;;;;;;;34.00;21.88;99115.59;5189351;28;20064;-67
2022/08/23 10:57:40;;;;;;;2.50;1.30;;;;;;;33.96;23.02;99113.72;5189147;28;20065;-67
2022/08/23 11:00:33;;;;;;;3.57;1.53;;;;;;;34.32;21.98;99103.88;5189024;28;20048;-67
2022/08/23 11:03:32;;;;;;;5.18;1.70;;;;;;;34.06;21.76;99105.38;5202837;28;20553;-68
2022/08/23 11:06:35;;;;;;;1.92;1.42;;;;;;;34.21;23.17;99112.59;5217081;28;20057;-67
2022/08/23 11:09:37;;;;;;;2.72;1.50;;;;;;;34.32;21.98;99103.09;5189187;28;20055;-67
2022/08/23 11:13:05;;;;;;;5.18;1.50;;;;;;;34.32;22.83;99097.56;5187030;28;20056;-68
2022/08/23 11:16:12;;;;;;;4.68;1.52;;;;;;;34.26;22.06;99098.75;5200149;28;20045;-68
2022/08/23 11:19:12;;;;;;;3.28;1.60;;;;;;;34.67;22.94;99096.25;5202019;28;20100;-67
2022/08/23 11:22:31;;;;;;;3.85;1.70;;;;;;;34.40;21.68;99091.38;5189366;28;20151;-68
2022/08/23 11:25:23;;;;;;;3.08;1.50;;;;;;;34.31;22.06;99098.69;5189414;28;20155;-67
2022/08/23 11:28:20;;;;;;;3.95;1.40;;;;;;;34.37;23.19;99095.56;5216842;28;20089;-68
2022/08/23 11:31:20;;;;;;;3.63;1.33;;;;;;;34.03;21.97;99094.94;5202313;28;20160;-67
2022/08/23 11:34:22;;;;;;;5.53;1.55;;;;;;;34.13;21.67;99090.13;5188829;28;20443;-67
2022/08/23 11:37:28;;;;;;;3.15;1.73;;;;;;;34.01;22.22;99088.94;5200933;28;20053;-68
2022/08/23 11:40:40;;;;;;;3.10;1.40;;;;;;;33.91;22.20;99078.88;5188075;28;20060;-67
2022/08/23 11:43:39;;;;;;;2.58;1.38;;;;;;;34.24;22.48;99092.72;5199114;28;20079;-67
2022/08/23 11:46:33;;;;;;;3.10;1.60;;;;;;;34.12;22.18;99091.25;5208786;28;20128;-67
2022/08/23 11:49:54;;;;;;;1.83;1.60;;;;;;;33.72;22.97;99078.00;5222601;28;20131;-67
2022/08/23 11:52:47;;;;;;;;;;;;;;;33.59;22.38;99085.84;5223079;28;20052;-67
2022/08/23 11:56:08;;;;;;;2.60;1.48;;;;;;;33.52;22.74;99087.31;5223931;28;19931;-67
2022/08/23 11:59:21;;;;;;;4.45;1.50;;;;;;;33.40;22.62;99082.19;5223697;28;20045;-67
2022/08/23 12:02:38;;;;;;;3.15;1.30;;;;;;;32.94;22.81;99074.38;5207900;28;20056;-67
2022/08/23 12:05:37;;;;;;;3.40;1.60;;;;;;;32.83;23.17;99079.16;5208634;28;20435;-67
2022/08/23 12:08:43;;;;;;;4.38;1.80;;;;;;;33.06;23.18;99074.03;5208785;28;20076;-67
2022/08/23 12:11:55;;;;;;;4.72;1.73;;;;;;;33.07;22.79;99075.66;5222071;28;20067;-67
2022/08/23 12:14:45;;;;;;;1.50;1.35;;;;;;;33.31;23.08;99067.44;5236435;28;20525;-67
2022/08/23 12:17:38;;;;;;;2.47;1.27;;;;;;;31.77;23.52;99068.56;5223666;28;20605;-67
2022/08/23 12:20:31;;;;;;;1.63;1.30;;;;;;;32.36;24.03;99066.88;5223037;28;20149;-67
2022/08/23 12:23:21;;;;;;;4.20;1.60;;;;;;;32.81;24.39;99064.06;5222878;28;20529;-67
2022/08/23 12:26:25;;;;;;;2.28;1.60;;;;;;;33.06;23.06;99049.31;5223847;28;20537;-67
2022/08/23 12:29:28;;;;;;;4.97;1.52;;;;;;;32.85;23.52;99060.47;5223343;28;20150;-68
2022/08/23 12:32:33;;;;;;;5.15;1.73;;;;;;;32.99;23.55;99049.66;5222251;28;20488;-67
2022/08/23 12:35:47;;;;;;;3.05;1.70;;;;;;;32.38;24.25;99055.59;5223032;28;20529;-67
2022/08/23 12:38:38;;;;;;;3.25;1.58;;;;;;;32.21;24.04;99051.31;5234694;28;20525;-68
2022/08/23 12:41:34;;;;;;;5.60;1.67;;;;;;;32.40;23.72;99053.41;5221200;28;20045;-68
2022/08/23 12:44:26;;;;;;;5.18;1.50;;;;;;;31.44;23.89;99052.78;5223160;28;20432;-68
2022/08/23 12:47:20;;;;;;;3.80;1.58;;;;;;;31.86;24.11;99049.59;5207991;28;20565;-69
2022/08/23 12:50:14;;;;;;;3.67;1.40;;;;;;;31.49;24.38;99060.97;5222745;28;20418;-68
2022/08/23 12:53:12;;;;;;;10.40;1.90;;;;;;;31.26;24.70;99052.28;5222440;28;20425;-68
2022/08/23 12:56:10;;;;;;;4.43;1.65;;;;;;;31.03;25.69;99050.97;5225074;28;20049;-67
2022/08/23 12:59:06;;;;;;;2.00;1.40;;;;;;;31.75;24.99;99046.06;5212149;28;20179;-67
2022/08/23 13:01:57;;;;;;;5.00;1.52;;;;;;;31.08;25.37;99028.22;5226187;28;20052;-68
2022/08/23 13:04:48;;;;;;;3.58;1.70;;;;;;;31.92;25.32;99042.19;5227251;28;20057;-68
2022/08/23 13:07:41;;;;;;;2.70;1.70;;;;;;;32.08;23.98;99035.50;5227189;28;20523;-66
2022/08/23 13:10:31;;;;;;;4.15;1.55;;;;;;;31.95;25.01;99036.13;5225942;28;20049;-66
2022/08/23 13:13:24;;;;;;;4.85;1.45;;;;;;;32.15;24.13;99035.19;5226695;28;20076;-66
2022/08/23 13:16:42;;;;;;;5.18;1.77;;;;;;;32.19;24.62;99036.28;5226934;28;20057;-66
2022/08/23 13:19:32;;;;;;;3.85;1.50;;;;;;;32.11;24.39;99029.44;5227185;28;20146;-67
2022/08/23 13:22:24;;;;;;;3.53;1.77;;;;;;;31.73;25.50;99018.13;5225951;28;20095;-66
2022/08/23 13:25:33;;;;;;;4.03;1.65;;;;;;;32.11;24.69;99026.72;5211777;28;20060;-67
2022/08/23 13:28:28;;;;;;;4.45;1.60;;;;;;;32.03;25.02;99022.66;5211696;28;20123;-67
2022/08/23 13:31:20;;;;;;;4.30;1.83;;;;;;;31.69;24.58;99017.06;5225807;28;20052;-67
2022/08/23 13:34:10;;;;;;;2.35;1.80;;;;;;;32.11;23.73;99023.16;5225628;28;20064;-67
2022/08/23 13:37:03;;;;;;;4.72;1.70;;;;;;;31.99;24.25;99038.03;5226419;28;20533;-67
2022/08/23 13:40:24;;;;;;;3.75;1.65;;;;;;;32.22;24.14;99022.81;5226594;28;20360;-68
2022/08/23 13:43:23;;;;;;;3.75;1.60;;;;;;;32.48;23.75;99028.09;5239304;28;20107;-67
2022/08/23 13:46:18;;;;;;;3.58;1.80;;;;;;;32.23;23.49;99026.38;5225672;28;20064;-68
2022/08/23 13:49:18;;;;;;;3.80;1.80;;;;;;;32.17;24.69;99024.75;5211430;28;20060;-67
2022/08/23 13:52:09;;;;;;;6.65;1.65;;;;;;;32.22;24.26;99014.56;5196113;28;20415;-67
2022/08/23 13:55:21;;;;;;;4.65;2.08;;;;;;;32.31;24.33;99022.19;5236340;28;20057;-66
2022/08/23 13:58:16;;;;;;;4.20;1.50;;;;;;;32.22;24.43;99014.56;5210740;28;20056;-66
2022/08/23 14:01:15;;;;;;;2.97;1.80;;;;;;;32.57;24.19;99020.91;5225762;28;20154;-67
2022/08/23 14:04:06;;;;;;;7.15;1.70;;;;;;;32.41;24.42;99022.09;5225855;28;20207;-67
2022/08/23 14:06:56;;;;;;;3.83;1.30;;;;;;;32.16;23.13;99012.97;5224918;28;20511;-67